sensor_id;sensor_type;location;lat;lon;timestamp;P1;durP1;ratioP1;P2;durP2;ratioP2
9485;SDS011;4781;48.776;9.200;2023-06-19T00:00:20;8.90;;;5.90;;
9485;SDS011;4781;48.776;9.200;2023-06-19T00:02:49;8.40;;;5.85;;
9485;SDS011;4781;48.776;9.200;2023-06-19T00:05:17;9.08;;;5.67;;
9485;SDS011;4781;48.776;9.200;2023-06-19T00:07:47;7.28;;;5.22;;
9485;SDS011;4781;48.776;9.200;2023-06-19T00:10:16;8.13;;;5.72;;
9485;SDS011;4781;48.776;9.200;2023-06-19T00:12:44;7.90;;;5.58;;
9485;SDS011;4781;48.776;9.200;2023-06-19T00:15:13;7.37;;;5.55;;
9485;SDS011;4781;48.776;9.200;2023-06-19T00:17:42;6.10;;;4.92;;
9485;SDS011;4781;48.776;9.200;2023-06-19T00:20:10;9.95;;;5.50;;
9485;SDS011;4781;48.776;9.200;2023-06-19T00:22:39;7.17;;;5.08;;
9485;SDS011;4781;48.776;9.200;2023-06-19T00:25:08;6.83;;;5.22;;
9485;SDS011;4781;48.776;9.200;2023-06-19T00:27:37;7.90;;;5.33;;
9485;SDS011;4781;48.776;9.200;2023-06-19T00:30:06;7.32;;;5.28;;
9485;SDS011;4781;48.776;9.200;2023-06-19T00:32:57;8.65;;;5.03;;
9485;SDS011;4781;48.776;9.200;2023-06-19T00:35:27;7.65;;;4.90;;
9485;SDS011;4781;48.776;9.200;2023-06-19T00:37:56;6.12;;;4.67;;
9485;SDS011;4781;48.776;9.200;2023-06-19T00:40:27;5.78;;;4.40;;
9485;SDS011;4781;48.776;9.200;2023-06-19T00:42:57;8.73;;;5.15;;
9485;SDS011;4781;48.776;9.200;2023-06-19T00:45:26;8.38;;;5.17;;
9485;SDS011;4781;48.776;9.200;2023-06-19T00:47:55;9.38;;;4.75;;
9485;SDS011;4781;48.776;9.200;2023-06-19T00:50:24;9.10;;;4.53;;
9485;SDS011;4781;48.776;9.200;2023-06-19T00:52:57;7.62;;;4.70;;
9485;SDS011;4781;48.776;9.200;2023-06-19T00:55:28;7.87;;;5.03;;
9485;SDS011;4781;48.776;9.200;2023-06-19T00:57:58;7.60;;;4.70;;
9485;SDS011;4781;48.776;9.200;2023-06-19T01:00:28;7.05;;;4.85;;
9485;SDS011;4781;48.776;9.200;2023-06-19T01:02:57;6.45;;;4.50;;
9485;SDS011;4781;48.776;9.200;2023-06-19T01:05:25;6.58;;;4.78;;
9485;SDS011;4781;48.776;9.200;2023-06-19T01:11:06;7.20;;;4.47;;
9485;SDS011;4781;48.776;9.200;2023-06-19T01:13:41;7.42;;;4.50;;
9485;SDS011;4781;48.776;9.200;2023-06-19T01:16:26;5.50;;;3.95;;
9485;SDS011;4781;48.776;9.200;2023-06-19T01:18:56;6.90;;;4.95;;
9485;SDS011;4781;48.776;9.200;2023-06-19T01:21:25;7.87;;;5.35;;
9485;SDS011;4781;48.776;9.200;2023-06-19T01:23:53;8.13;;;5.47;;
9485;SDS011;4781;48.776;9.200;2023-06-19T01:26:23;6.80;;;5.45;;
9485;SDS011;4781;48.776;9.200;2023-06-19T01:28:54;8.28;;;5.35;;
9485;SDS011;4781;48.776;9.200;2023-06-19T01:31:29;9.35;;;4.87;;
9485;SDS011;4781;48.776;9.200;2023-06-19T01:34:02;8.08;;;4.97;;
9485;SDS011;4781;48.776;9.200;2023-06-19T01:36:33;7.92;;;4.80;;
9485;SDS011;4781;48.776;9.200;2023-06-19T01:39:03;7.58;;;4.62;;
9485;SDS011;4781;48.776;9.200;2023-06-19T01:41:32;5.62;;;4.40;;
9485;SDS011;4781;48.776;9.200;2023-06-19T01:44:01;9.55;;;4.37;;
9485;SDS011;4781;48.776;9.200;2023-06-19T01:46:30;7.10;;;4.65;;
9485;SDS011;4781;48.776;9.200;2023-06-19T01:48:58;5.90;;;4.65;;
9485;SDS011;4781;48.776;9.200;2023-06-19T01:51:26;7.53;;;4.62;;
9485;SDS011;4781;48.776;9.200;2023-06-19T01:53:55;5.90;;;4.87;;
9485;SDS011;4781;48.776;9.200;2023-06-19T01:56:23;6.62;;;4.70;;
9485;SDS011;4781;48.776;9.200;2023-06-19T01:58:52;6.17;;;4.67;;
9485;SDS011;4781;48.776;9.200;2023-06-19T02:01:21;10.87;;;4.80;;
9485;SDS011;4781;48.776;9.200;2023-06-19T02:03:49;7.50;;;4.58;;
9485;SDS011;4781;48.776;9.200;2023-06-19T02:06:18;9.38;;;4.53;;
9485;SDS011;4781;48.776;9.200;2023-06-19T02:08:47;9.13;;;4.67;;
9485;SDS011;4781;48.776;9.200;2023-06-19T02:11:16;8.43;;;4.45;;
9485;SDS011;4781;48.776;9.200;2023-06-19T02:13:44;6.40;;;4.85;;
9485;SDS011;4781;48.776;9.200;2023-06-19T02:16:12;6.30;;;4.10;;
9485;SDS011;4781;48.776;9.200;2023-06-19T02:18:41;6.35;;;4.20;;
9485;SDS011;4781;48.776;9.200;2023-06-19T02:21:09;8.33;;;4.20;;
9485;SDS011;4781;48.776;9.200;2023-06-19T02:23:38;8.00;;;4.03;;
9485;SDS011;4781;48.776;9.200;2023-06-19T02:26:06;5.72;;;4.00;;
9485;SDS011;4781;48.776;9.200;2023-06-19T02:28:34;5.95;;;4.42;;
9485;SDS011;4781;48.776;9.200;2023-06-19T02:31:03;5.83;;;4.00;;
9485;SDS011;4781;48.776;9.200;2023-06-19T02:33:31;5.33;;;4.03;;
9485;SDS011;4781;48.776;9.200;2023-06-19T02:35:59;5.47;;;3.90;;
9485;SDS011;4781;48.776;9.200;2023-06-19T02:38:28;6.30;;;4.22;;
9485;SDS011;4781;48.776;9.200;2023-06-19T02:40:57;5.58;;;4.03;;
9485;SDS011;4781;48.776;9.200;2023-06-19T02:43:27;5.37;;;3.90;;
9485;SDS011;4781;48.776;9.200;2023-06-19T02:45:56;6.58;;;3.98;;
9485;SDS011;4781;48.776;9.200;2023-06-19T02:48:24;6.10;;;4.20;;
9485;SDS011;4781;48.776;9.200;2023-06-19T02:50:53;6.47;;;4.08;;
9485;SDS011;4781;48.776;9.200;2023-06-19T02:53:22;5.20;;;3.75;;
9485;SDS011;4781;48.776;9.200;2023-06-19T02:55:50;4.70;;;3.75;;
9485;SDS011;4781;48.776;9.200;2023-06-19T02:58:19;5.30;;;4.00;;
9485;SDS011;4781;48.776;9.200;2023-06-19T03:00:47;6.30;;;3.70;;
9485;SDS011;4781;48.776;9.200;2023-06-19T03:03:16;5.60;;;3.83;;
9485;SDS011;4781;48.776;9.200;2023-06-19T03:05:44;7.78;;;3.55;;
9485;SDS011;4781;48.776;9.200;2023-06-19T03:08:13;5.60;;;4.00;;
9485;SDS011;4781;48.776;9.200;2023-06-19T03:10:41;6.42;;;3.60;;
9485;SDS011;4781;48.776;9.200;2023-06-19T03:13:10;5.67;;;3.50;;
9485;SDS011;4781;48.776;9.200;2023-06-19T03:15:40;4.53;;;3.60;;
9485;SDS011;4781;48.776;9.200;2023-06-19T03:18:08;5.83;;;4.00;;
9485;SDS011;4781;48.776;9.200;2023-06-19T03:20:36;4.75;;;3.70;;
9485;SDS011;4781;48.776;9.200;2023-06-19T03:23:05;4.70;;;3.30;;
9485;SDS011;4781;48.776;9.200;2023-06-19T03:25:33;5.45;;;3.60;;
9485;SDS011;4781;48.776;9.200;2023-06-19T03:28:02;5.90;;;3.30;;
9485;SDS011;4781;48.776;9.200;2023-06-19T03:30:30;5.22;;;3.17;;
9485;SDS011;4781;48.776;9.200;2023-06-19T03:32:59;5.85;;;3.12;;
9485;SDS011;4781;48.776;9.200;2023-06-19T03:35:27;4.83;;;3.37;;
9485;SDS011;4781;48.776;9.200;2023-06-19T03:37:55;4.40;;;3.33;;
9485;SDS011;4781;48.776;9.200;2023-06-19T03:40:24;4.92;;;3.33;;
9485;SDS011;4781;48.776;9.200;2023-06-19T03:42:52;5.22;;;2.80;;
9485;SDS011;4781;48.776;9.200;2023-06-19T03:45:21;4.10;;;2.80;;
9485;SDS011;4781;48.776;9.200;2023-06-19T03:47:49;5.00;;;3.08;;
9485;SDS011;4781;48.776;9.200;2023-06-19T03:50:17;4.50;;;3.00;;
9485;SDS011;4781;48.776;9.200;2023-06-19T03:52:46;4.42;;;3.15;;
9485;SDS011;4781;48.776;9.200;2023-06-19T03:55:14;5.60;;;3.02;;
9485;SDS011;4781;48.776;9.200;2023-06-19T03:57:43;4.10;;;2.83;;
9485;SDS011;4781;48.776;9.200;2023-06-19T04:00:11;4.87;;;2.80;;
9485;SDS011;4781;48.776;9.200;2023-06-19T04:02:41;4.12;;;2.72;;
9485;SDS011;4781;48.776;9.200;2023-06-19T04:05:11;5.60;;;3.30;;
9485;SDS011;4781;48.776;9.200;2023-06-19T04:07:41;4.37;;;2.70;;
9485;SDS011;4781;48.776;9.200;2023-06-19T04:10:09;5.10;;;3.10;;
9485;SDS011;4781;48.776;9.200;2023-06-19T04:12:38;4.40;;;2.90;;
9485;SDS011;4781;48.776;9.200;2023-06-19T04:15:07;4.78;;;2.90;;
9485;SDS011;4781;48.776;9.200;2023-06-19T04:17:36;4.40;;;2.98;;
9485;SDS011;4781;48.776;9.200;2023-06-19T04:20:05;4.95;;;2.90;;
9485;SDS011;4781;48.776;9.200;2023-06-19T04:22:37;5.03;;;3.10;;
9485;SDS011;4781;48.776;9.200;2023-06-19T04:25:06;5.72;;;3.08;;
9485;SDS011;4781;48.776;9.200;2023-06-19T04:27:39;4.85;;;2.87;;
9485;SDS011;4781;48.776;9.200;2023-06-19T04:30:11;5.00;;;3.30;;
9485;SDS011;4781;48.776;9.200;2023-06-19T04:32:39;4.85;;;3.12;;
9485;SDS011;4781;48.776;9.200;2023-06-19T04:35:08;4.60;;;3.00;;
9485;SDS011;4781;48.776;9.200;2023-06-19T04:37:37;4.37;;;2.80;;
9485;SDS011;4781;48.776;9.200;2023-06-19T04:40:06;4.60;;;2.77;;
9485;SDS011;4781;48.776;9.200;2023-06-19T04:42:34;3.75;;;2.62;;
9485;SDS011;4781;48.776;9.200;2023-06-19T04:45:04;5.92;;;2.98;;
9485;SDS011;4781;48.776;9.200;2023-06-19T04:47:35;5.62;;;2.85;;
9485;SDS011;4781;48.776;9.200;2023-06-19T04:50:05;3.95;;;2.75;;
9485;SDS011;4781;48.776;9.200;2023-06-19T04:52:35;5.00;;;2.77;;
9485;SDS011;4781;48.776;9.200;2023-06-19T04:55:06;4.30;;;2.60;;
9485;SDS011;4781;48.776;9.200;2023-06-19T04:57:36;4.87;;;2.80;;
9485;SDS011;4781;48.776;9.200;2023-06-19T05:00:05;4.50;;;2.83;;
9485;SDS011;4781;48.776;9.200;2023-06-19T05:02:35;5.47;;;2.80;;
9485;SDS011;4781;48.776;9.200;2023-06-19T05:05:04;5.83;;;3.15;;
9485;SDS011;4781;48.776;9.200;2023-06-19T05:07:33;4.80;;;2.87;;
9485;SDS011;4781;48.776;9.200;2023-06-19T05:10:02;5.08;;;3.20;;
9485;SDS011;4781;48.776;9.200;2023-06-19T05:12:30;5.25;;;3.00;;
9485;SDS011;4781;48.776;9.200;2023-06-19T05:14:58;3.70;;;2.80;;
9485;SDS011;4781;48.776;9.200;2023-06-19T05:17:27;4.92;;;2.87;;
9485;SDS011;4781;48.776;9.200;2023-06-19T05:19:55;5.75;;;2.85;;
9485;SDS011;4781;48.776;9.200;2023-06-19T05:22:24;5.08;;;3.05;;
9485;SDS011;4781;48.776;9.200;2023-06-19T05:24:52;4.83;;;3.08;;
9485;SDS011;4781;48.776;9.200;2023-06-19T05:27:21;5.28;;;2.70;;
9485;SDS011;4781;48.776;9.200;2023-06-19T05:29:49;4.50;;;2.60;;
9485;SDS011;4781;48.776;9.200;2023-06-19T05:32:18;4.87;;;2.80;;
9485;SDS011;4781;48.776;9.200;2023-06-19T05:34:46;6.22;;;2.77;;
9485;SDS011;4781;48.776;9.200;2023-06-19T05:37:16;5.83;;;2.95;;
9485;SDS011;4781;48.776;9.200;2023-06-19T05:39:44;4.42;;;2.50;;
9485;SDS011;4781;48.776;9.200;2023-06-19T05:42:13;4.97;;;2.65;;
9485;SDS011;4781;48.776;9.200;2023-06-19T05:44:41;3.60;;;2.50;;
9485;SDS011;4781;48.776;9.200;2023-06-19T05:47:10;4.33;;;2.72;;
9485;SDS011;4781;48.776;9.200;2023-06-19T05:49:38;4.85;;;2.72;;
9485;SDS011;4781;48.776;9.200;2023-06-19T05:52:07;4.37;;;2.60;;
9485;SDS011;4781;48.776;9.200;2023-06-19T05:54:35;3.80;;;2.60;;
9485;SDS011;4781;48.776;9.200;2023-06-19T05:57:04;4.85;;;2.90;;
9485;SDS011;4781;48.776;9.200;2023-06-19T05:59:32;4.95;;;2.80;;
9485;SDS011;4781;48.776;9.200;2023-06-19T06:02:01;4.78;;;3.02;;
9485;SDS011;4781;48.776;9.200;2023-06-19T06:04:29;4.30;;;2.95;;
9485;SDS011;4781;48.776;9.200;2023-06-19T06:06:58;7.17;;;2.92;;
9485;SDS011;4781;48.776;9.200;2023-06-19T06:09:26;5.03;;;2.95;;
9485;SDS011;4781;48.776;9.200;2023-06-19T06:11:55;4.55;;;3.00;;
9485;SDS011;4781;48.776;9.200;2023-06-19T06:14:23;5.22;;;3.10;;
9485;SDS011;4781;48.776;9.200;2023-06-19T06:16:52;5.25;;;3.17;;
9485;SDS011;4781;48.776;9.200;2023-06-19T06:19:20;4.62;;;3.08;;
9485;SDS011;4781;48.776;9.200;2023-06-19T06:21:49;4.17;;;2.80;;
9485;SDS011;4781;48.776;9.200;2023-06-19T06:24:17;7.10;;;3.10;;
9485;SDS011;4781;48.776;9.200;2023-06-19T06:26:46;4.25;;;2.85;;
9485;SDS011;4781;48.776;9.200;2023-06-19T06:29:14;3.70;;;2.47;;
9485;SDS011;4781;48.776;9.200;2023-06-19T06:31:45;4.08;;;2.72;;
9485;SDS011;4781;48.776;9.200;2023-06-19T06:34:13;4.50;;;2.75;;
9485;SDS011;4781;48.776;9.200;2023-06-19T06:36:42;4.47;;;2.70;;
9485;SDS011;4781;48.776;9.200;2023-06-19T06:39:10;4.30;;;2.30;;
9485;SDS011;4781;48.776;9.200;2023-06-19T06:41:38;3.87;;;2.33;;
9485;SDS011;4781;48.776;9.200;2023-06-19T06:44:07;3.85;;;2.40;;
9485;SDS011;4781;48.776;9.200;2023-06-19T06:46:36;4.12;;;2.30;;
9485;SDS011;4781;48.776;9.200;2023-06-19T06:49:05;4.08;;;2.20;;
9485;SDS011;4781;48.776;9.200;2023-06-19T06:51:33;3.15;;;2.17;;
9485;SDS011;4781;48.776;9.200;2023-06-19T06:54:01;3.83;;;2.20;;
9485;SDS011;4781;48.776;9.200;2023-06-19T06:56:30;3.40;;;2.08;;
9485;SDS011;4781;48.776;9.200;2023-06-19T06:58:58;6.10;;;2.27;;
9485;SDS011;4781;48.776;9.200;2023-06-19T07:01:27;4.25;;;2.20;;
9485;SDS011;4781;48.776;9.200;2023-06-19T07:03:55;3.60;;;1.92;;
9485;SDS011;4781;48.776;9.200;2023-06-19T07:06:23;4.00;;;2.10;;
9485;SDS011;4781;48.776;9.200;2023-06-19T07:08:52;3.58;;;2.05;;
9485;SDS011;4781;48.776;9.200;2023-06-19T07:11:20;5.00;;;2.15;;
9485;SDS011;4781;48.776;9.200;2023-06-19T07:13:50;5.00;;;1.92;;
9485;SDS011;4781;48.776;9.200;2023-06-19T07:16:18;4.10;;;2.20;;
9485;SDS011;4781;48.776;9.200;2023-06-19T07:18:47;3.87;;;2.00;;
9485;SDS011;4781;48.776;9.200;2023-06-19T07:21:15;5.47;;;2.20;;
9485;SDS011;4781;48.776;9.200;2023-06-19T07:23:44;2.95;;;2.00;;
9485;SDS011;4781;48.776;9.200;2023-06-19T07:26:16;5.28;;;1.90;;
9485;SDS011;4781;48.776;9.200;2023-06-19T07:28:44;3.37;;;2.05;;
9485;SDS011;4781;48.776;9.200;2023-06-19T07:31:13;3.80;;;2.02;;
9485;SDS011;4781;48.776;9.200;2023-06-19T07:33:42;4.37;;;2.10;;
9485;SDS011;4781;48.776;9.200;2023-06-19T07:36:10;3.10;;;1.90;;
9485;SDS011;4781;48.776;9.200;2023-06-19T07:38:40;3.02;;;2.17;;
9485;SDS011;4781;48.776;9.200;2023-06-19T07:41:10;4.75;;;2.00;;
9485;SDS011;4781;48.776;9.200;2023-06-19T07:43:39;4.05;;;2.00;;
9485;SDS011;4781;48.776;9.200;2023-06-19T07:46:07;5.10;;;1.90;;
9485;SDS011;4781;48.776;9.200;2023-06-19T07:48:36;3.10;;;2.10;;
9485;SDS011;4781;48.776;9.200;2023-06-19T07:51:05;3.77;;;2.00;;
9485;SDS011;4781;48.776;9.200;2023-06-19T07:53:33;6.70;;;2.08;;
9485;SDS011;4781;48.776;9.200;2023-06-19T07:56:01;3.80;;;1.95;;
9485;SDS011;4781;48.776;9.200;2023-06-19T07:58:30;7.08;;;2.80;;
9485;SDS011;4781;48.776;9.200;2023-06-19T08:00:58;5.45;;;2.10;;
9485;SDS011;4781;48.776;9.200;2023-06-19T08:03:27;3.80;;;2.30;;
9485;SDS011;4781;48.776;9.200;2023-06-19T08:05:56;3.60;;;2.12;;
9485;SDS011;4781;48.776;9.200;2023-06-19T08:08:24;3.17;;;1.90;;
9485;SDS011;4781;48.776;9.200;2023-06-19T08:10:53;4.28;;;2.10;;
9485;SDS011;4781;48.776;9.200;2023-06-19T08:13:21;5.25;;;2.08;;
9485;SDS011;4781;48.776;9.200;2023-06-19T08:15:50;5.72;;;2.30;;
9485;SDS011;4781;48.776;9.200;2023-06-19T08:18:18;4.83;;;2.40;;
9485;SDS011;4781;48.776;9.200;2023-06-19T08:20:46;4.58;;;2.10;;
9485;SDS011;4781;48.776;9.200;2023-06-19T08:23:15;3.92;;;2.20;;
9485;SDS011;4781;48.776;9.200;2023-06-19T08:25:43;3.98;;;2.40;;
9485;SDS011;4781;48.776;9.200;2023-06-19T08:28:12;3.30;;;2.20;;
9485;SDS011;4781;48.776;9.200;2023-06-19T08:30:40;3.90;;;2.02;;
9485;SDS011;4781;48.776;9.200;2023-06-19T08:33:08;3.83;;;2.10;;
9485;SDS011;4781;48.776;9.200;2023-06-19T08:35:38;4.10;;;2.10;;
9485;SDS011;4781;48.776;9.200;2023-06-19T08:38:07;5.42;;;2.20;;
9485;SDS011;4781;48.776;9.200;2023-06-19T08:40:35;3.37;;;2.00;;
9485;SDS011;4781;48.776;9.200;2023-06-19T08:43:03;4.22;;;2.65;;
9485;SDS011;4781;48.776;9.200;2023-06-19T08:45:33;4.12;;;1.82;;
9485;SDS011;4781;48.776;9.200;2023-06-19T08:48:02;4.50;;;2.50;;
9485;SDS011;4781;48.776;9.200;2023-06-19T08:50:33;5.62;;;2.40;;
9485;SDS011;4781;48.776;9.200;2023-06-19T08:53:01;3.87;;;2.40;;
9485;SDS011;4781;48.776;9.200;2023-06-19T08:55:30;3.27;;;2.30;;
9485;SDS011;4781;48.776;9.200;2023-06-19T08:57:58;4.25;;;2.55;;
9485;SDS011;4781;48.776;9.200;2023-06-19T09:00:27;4.42;;;2.65;;
9485;SDS011;4781;48.776;9.200;2023-06-19T09:03:00;3.55;;;2.37;;
9485;SDS011;4781;48.776;9.200;2023-06-19T09:05:30;3.87;;;2.20;;
9485;SDS011;4781;48.776;9.200;2023-06-19T09:07:59;7.47;;;2.50;;
9485;SDS011;4781;48.776;9.200;2023-06-19T09:10:27;3.67;;;2.35;;
9485;SDS011;4781;48.776;9.200;2023-06-19T09:13:03;4.58;;;2.62;;
9485;SDS011;4781;48.776;9.200;2023-06-19T09:15:29;4.95;;;2.20;;
9485;SDS011;4781;48.776;9.200;2023-06-19T09:18:07;3.60;;;2.20;;
9485;SDS011;4781;48.776;9.200;2023-06-19T09:20:43;3.25;;;2.10;;
9485;SDS011;4781;48.776;9.200;2023-06-19T09:23:13;3.98;;;2.33;;
9485;SDS011;4781;48.776;9.200;2023-06-19T09:25:48;3.65;;;2.08;;
9485;SDS011;4781;48.776;9.200;2023-06-19T09:28:22;3.83;;;2.05;;
9485;SDS011;4781;48.776;9.200;2023-06-19T09:31:00;3.40;;;2.10;;
9485;SDS011;4781;48.776;9.200;2023-06-19T09:33:32;3.45;;;2.10;;
9485;SDS011;4781;48.776;9.200;2023-06-19T09:36:02;3.27;;;2.15;;
9485;SDS011;4781;48.776;9.200;2023-06-19T09:38:33;4.33;;;2.12;;
9485;SDS011;4781;48.776;9.200;2023-06-19T09:41:06;5.25;;;2.17;;
9485;SDS011;4781;48.776;9.200;2023-06-19T09:43:37;3.40;;;2.20;;
9485;SDS011;4781;48.776;9.200;2023-06-19T09:46:10;4.33;;;2.08;;
9485;SDS011;4781;48.776;9.200;2023-06-19T09:48:41;3.70;;;2.00;;
9485;SDS011;4781;48.776;9.200;2023-06-19T09:51:20;3.70;;;2.30;;
9485;SDS011;4781;48.776;9.200;2023-06-19T09:53:51;3.62;;;2.50;;
9485;SDS011;4781;48.776;9.200;2023-06-19T09:56:19;6.00;;;2.27;;
9485;SDS011;4781;48.776;9.200;2023-06-19T09:58:50;5.70;;;2.30;;
9485;SDS011;4781;48.776;9.200;2023-06-19T10:01:22;6.03;;;2.60;;
9485;SDS011;4781;48.776;9.200;2023-06-19T10:04:00;6.22;;;2.40;;
9485;SDS011;4781;48.776;9.200;2023-06-19T10:06:32;4.60;;;2.25;;
9485;SDS011;4781;48.776;9.200;2023-06-19T10:09:14;5.60;;;2.55;;
9485;SDS011;4781;48.776;9.200;2023-06-19T10:11:50;5.47;;;2.75;;
9485;SDS011;4781;48.776;9.200;2023-06-19T10:14:19;4.40;;;2.55;;
9485;SDS011;4781;48.776;9.200;2023-06-19T10:16:50;4.22;;;2.50;;
9485;SDS011;4781;48.776;9.200;2023-06-19T10:19:20;4.17;;;2.20;;
9485;SDS011;4781;48.776;9.200;2023-06-19T10:21:51;6.40;;;2.35;;
9485;SDS011;4781;48.776;9.200;2023-06-19T10:24:23;6.05;;;2.50;;
9485;SDS011;4781;48.776;9.200;2023-06-19T10:26:59;3.75;;;2.47;;
9485;SDS011;4781;48.776;9.200;2023-06-19T10:29:38;5.37;;;2.65;;
9485;SDS011;4781;48.776;9.200;2023-06-19T10:32:08;5.78;;;2.60;;
9485;SDS011;4781;48.776;9.200;2023-06-19T10:34:36;5.28;;;2.90;;
9485;SDS011;4781;48.776;9.200;2023-06-19T10:37:04;4.55;;;3.00;;
9485;SDS011;4781;48.776;9.200;2023-06-19T10:39:33;4.17;;;2.87;;
9485;SDS011;4781;48.776;9.200;2023-06-19T10:42:04;8.88;;;3.95;;
9485;SDS011;4781;48.776;9.200;2023-06-19T10:47:04;6.15;;;2.90;;
9485;SDS011;4781;48.776;9.200;2023-06-19T10:49:33;4.08;;;2.80;;
9485;SDS011;4781;48.776;9.200;2023-06-19T10:52:02;5.08;;;3.00;;
9485;SDS011;4781;48.776;9.200;2023-06-19T10:54:31;9.08;;;2.60;;
9485;SDS011;4781;48.776;9.200;2023-06-19T10:57:03;4.17;;;2.83;;
9485;SDS011;4781;48.776;9.200;2023-06-19T10:59:33;5.25;;;2.60;;
9485;SDS011;4781;48.776;9.200;2023-06-19T11:02:02;4.05;;;2.83;;
9485;SDS011;4781;48.776;9.200;2023-06-19T11:04:31;6.28;;;2.87;;
9485;SDS011;4781;48.776;9.200;2023-06-19T11:07:05;5.15;;;3.05;;
9485;SDS011;4781;48.776;9.200;2023-06-19T11:09:34;6.70;;;2.80;;
9485;SDS011;4781;48.776;9.200;2023-06-19T11:12:03;4.33;;;2.80;;
9485;SDS011;4781;48.776;9.200;2023-06-19T11:14:33;4.67;;;2.72;;
9485;SDS011;4781;48.776;9.200;2023-06-19T11:17:04;4.92;;;3.00;;
9485;SDS011;4781;48.776;9.200;2023-06-19T11:19:33;4.10;;;2.45;;
9485;SDS011;4781;48.776;9.200;2023-06-19T11:22:01;4.12;;;2.83;;
9485;SDS011;4781;48.776;9.200;2023-06-19T11:24:30;4.45;;;2.80;;
9485;SDS011;4781;48.776;9.200;2023-06-19T11:26:58;6.05;;;2.85;;
9485;SDS011;4781;48.776;9.200;2023-06-19T11:29:30;4.15;;;2.80;;
9485;SDS011;4781;48.776;9.200;2023-06-19T11:34:40;4.40;;;2.80;;
9485;SDS011;4781;48.776;9.200;2023-06-19T11:37:13;4.90;;;3.05;;
9485;SDS011;4781;48.776;9.200;2023-06-19T11:39:45;4.75;;;2.80;;
9485;SDS011;4781;48.776;9.200;2023-06-19T11:42:15;5.50;;;3.25;;
9485;SDS011;4781;48.776;9.200;2023-06-19T11:44:54;4.85;;;3.05;;
9485;SDS011;4781;48.776;9.200;2023-06-19T11:47:31;9.10;;;3.20;;
9485;SDS011;4781;48.776;9.200;2023-06-19T11:50:03;6.70;;;3.12;;
9485;SDS011;4781;48.776;9.200;2023-06-19T11:52:32;4.20;;;3.00;;
9485;SDS011;4781;48.776;9.200;2023-06-19T11:55:01;6.00;;;3.00;;
9485;SDS011;4781;48.776;9.200;2023-06-19T11:57:30;5.20;;;2.70;;
9485;SDS011;4781;48.776;9.200;2023-06-19T11:59:59;4.87;;;2.87;;
9485;SDS011;4781;48.776;9.200;2023-06-19T12:02:27;4.90;;;2.87;;
9485;SDS011;4781;48.776;9.200;2023-06-19T12:04:55;4.12;;;3.00;;
9485;SDS011;4781;48.776;9.200;2023-06-19T12:07:24;4.28;;;2.72;;
9485;SDS011;4781;48.776;9.200;2023-06-19T12:09:52;4.35;;;2.83;;
9485;SDS011;4781;48.776;9.200;2023-06-19T12:12:21;4.60;;;2.90;;
9485;SDS011;4781;48.776;9.200;2023-06-19T12:14:51;6.00;;;3.05;;
9485;SDS011;4781;48.776;9.200;2023-06-19T12:17:20;6.30;;;2.80;;
9485;SDS011;4781;48.776;9.200;2023-06-19T12:19:48;5.12;;;2.95;;
9485;SDS011;4781;48.776;9.200;2023-06-19T12:22:17;7.87;;;2.87;;
9485;SDS011;4781;48.776;9.200;2023-06-19T12:24:46;5.17;;;2.70;;
9485;SDS011;4781;48.776;9.200;2023-06-19T12:27:14;6.25;;;3.10;;
9485;SDS011;4781;48.776;9.200;2023-06-19T12:29:42;6.00;;;3.20;;
9485;SDS011;4781;48.776;9.200;2023-06-19T12:32:11;4.45;;;2.98;;
9485;SDS011;4781;48.776;9.200;2023-06-19T12:34:39;4.50;;;2.90;;
9485;SDS011;4781;48.776;9.200;2023-06-19T12:37:09;5.30;;;2.70;;
9485;SDS011;4781;48.776;9.200;2023-06-19T12:39:40;6.67;;;2.87;;
9485;SDS011;4781;48.776;9.200;2023-06-19T12:42:08;5.22;;;3.00;;
9485;SDS011;4781;48.776;9.200;2023-06-19T12:44:40;6.47;;;2.90;;
9485;SDS011;4781;48.776;9.200;2023-06-19T12:47:12;5.60;;;3.05;;
9485;SDS011;4781;48.776;9.200;2023-06-19T12:49:42;6.10;;;2.87;;
9485;SDS011;4781;48.776;9.200;2023-06-19T12:52:11;3.98;;;2.70;;
9485;SDS011;4781;48.776;9.200;2023-06-19T12:54:39;4.10;;;2.87;;
9485;SDS011;4781;48.776;9.200;2023-06-19T12:57:08;4.80;;;3.08;;
9485;SDS011;4781;48.776;9.200;2023-06-19T12:59:36;6.00;;;2.87;;
9485;SDS011;4781;48.776;9.200;2023-06-19T13:02:05;4.85;;;2.90;;
9485;SDS011;4781;48.776;9.200;2023-06-19T13:04:33;5.00;;;2.98;;
9485;SDS011;4781;48.776;9.200;2023-06-19T13:07:04;4.45;;;2.85;;
9485;SDS011;4781;48.776;9.200;2023-06-19T13:09:32;5.35;;;2.60;;
9485;SDS011;4781;48.776;9.200;2023-06-19T13:12:01;4.33;;;3.00;;
9485;SDS011;4781;48.776;9.200;2023-06-19T13:14:30;4.00;;;2.70;;
9485;SDS011;4781;48.776;9.200;2023-06-19T13:17:00;5.75;;;3.20;;
9485;SDS011;4781;48.776;9.200;2023-06-19T13:19:28;7.72;;;3.37;;
9485;SDS011;4781;48.776;9.200;2023-06-19T13:21:56;6.05;;;2.83;;
9485;SDS011;4781;48.776;9.200;2023-06-19T13:24:25;7.30;;;3.22;;
9485;SDS011;4781;48.776;9.200;2023-06-19T13:26:53;5.03;;;3.17;;
9485;SDS011;4781;48.776;9.200;2023-06-19T13:29:22;5.47;;;3.08;;
9485;SDS011;4781;48.776;9.200;2023-06-19T13:31:50;7.65;;;2.75;;
9485;SDS011;4781;48.776;9.200;2023-06-19T13:34:19;4.05;;;2.62;;
9485;SDS011;4781;48.776;9.200;2023-06-19T13:36:48;7.20;;;2.87;;
9485;SDS011;4781;48.776;9.200;2023-06-19T13:39:16;4.03;;;2.62;;
9485;SDS011;4781;48.776;9.200;2023-06-19T13:41:47;6.37;;;3.20;;
9485;SDS011;4781;48.776;9.200;2023-06-19T13:44:16;4.67;;;2.70;;
9485;SDS011;4781;48.776;9.200;2023-06-19T13:46:44;6.97;;;3.12;;
9485;SDS011;4781;48.776;9.200;2023-06-19T13:49:13;4.97;;;3.02;;
9485;SDS011;4781;48.776;9.200;2023-06-19T13:51:41;7.50;;;3.10;;
9485;SDS011;4781;48.776;9.200;2023-06-19T13:54:10;4.30;;;2.92;;
9485;SDS011;4781;48.776;9.200;2023-06-19T13:56:39;4.37;;;2.92;;
9485;SDS011;4781;48.776;9.200;2023-06-19T13:59:08;4.95;;;3.00;;
9485;SDS011;4781;48.776;9.200;2023-06-19T14:01:36;3.67;;;2.60;;
9485;SDS011;4781;48.776;9.200;2023-06-19T14:04:06;3.42;;;2.35;;
9485;SDS011;4781;48.776;9.200;2023-06-19T14:06:37;4.65;;;2.67;;
9485;SDS011;4781;48.776;9.200;2023-06-19T14:09:07;6.40;;;2.95;;
9485;SDS011;4781;48.776;9.200;2023-06-19T14:11:36;5.58;;;2.80;;
9485;SDS011;4781;48.776;9.200;2023-06-19T14:14:04;5.80;;;2.80;;
9485;SDS011;4781;48.776;9.200;2023-06-19T14:16:33;4.83;;;2.83;;
9485;SDS011;4781;48.776;9.200;2023-06-19T14:19:01;3.47;;;2.30;;
9485;SDS011;4781;48.776;9.200;2023-06-19T14:21:30;7.83;;;2.75;;
9485;SDS011;4781;48.776;9.200;2023-06-19T14:23:58;5.67;;;3.02;;
9485;SDS011;4781;48.776;9.200;2023-06-19T14:26:27;6.72;;;3.10;;
9485;SDS011;4781;48.776;9.200;2023-06-19T14:28:55;5.97;;;2.77;;
9485;SDS011;4781;48.776;9.200;2023-06-19T14:31:24;6.25;;;3.00;;
9485;SDS011;4781;48.776;9.200;2023-06-19T14:33:53;5.37;;;2.65;;
9485;SDS011;4781;48.776;9.200;2023-06-19T14:36:22;5.42;;;2.62;;
9485;SDS011;4781;48.776;9.200;2023-06-19T14:38:50;6.05;;;3.02;;
9485;SDS011;4781;48.776;9.200;2023-06-19T14:41:19;4.10;;;2.77;;
9485;SDS011;4781;48.776;9.200;2023-06-19T14:43:47;4.70;;;3.08;;
9485;SDS011;4781;48.776;9.200;2023-06-19T14:46:16;4.83;;;2.80;;
9485;SDS011;4781;48.776;9.200;2023-06-19T14:48:44;4.60;;;3.10;;
9485;SDS011;4781;48.776;9.200;2023-06-19T14:51:12;7.15;;;2.90;;
9485;SDS011;4781;48.776;9.200;2023-06-19T14:53:41;6.00;;;3.00;;
9485;SDS011;4781;48.776;9.200;2023-06-19T14:56:09;4.95;;;2.92;;
9485;SDS011;4781;48.776;9.200;2023-06-19T14:58:38;5.95;;;2.75;;
9485;SDS011;4781;48.776;9.200;2023-06-19T15:01:06;5.95;;;2.98;;
9485;SDS011;4781;48.776;9.200;2023-06-19T15:03:35;4.37;;;2.90;;
9485;SDS011;4781;48.776;9.200;2023-06-19T15:06:03;6.00;;;2.98;;
9485;SDS011;4781;48.776;9.200;2023-06-19T15:08:32;5.58;;;3.00;;
9485;SDS011;4781;48.776;9.200;2023-06-19T15:11:02;5.33;;;3.00;;
9485;SDS011;4781;48.776;9.200;2023-06-19T15:13:31;5.62;;;2.80;;
9485;SDS011;4781;48.776;9.200;2023-06-19T15:15:59;6.83;;;2.90;;
9485;SDS011;4781;48.776;9.200;2023-06-19T15:18:29;3.58;;;2.70;;
9485;SDS011;4781;48.776;9.200;2023-06-19T15:20:58;6.12;;;2.90;;
9485;SDS011;4781;48.776;9.200;2023-06-19T15:23:26;5.83;;;3.08;;
9485;SDS011;4781;48.776;9.200;2023-06-19T15:25:54;6.05;;;2.80;;
9485;SDS011;4781;48.776;9.200;2023-06-19T15:28:23;6.62;;;3.20;;
9485;SDS011;4781;48.776;9.200;2023-06-19T15:30:51;4.28;;;3.00;;
9485;SDS011;4781;48.776;9.200;2023-06-19T15:33:20;8.18;;;2.90;;
9485;SDS011;4781;48.776;9.200;2023-06-19T15:35:48;4.80;;;2.70;;